createdAt,value
2024-04-18T00:03:28.522Z,984.1
2024-04-18T00:08:46.651Z,984.2
2024-04-18T00:19:26.080Z,984.2
2024-04-18T00:24:45.083Z,984.2
2024-04-18T00:35:24.100Z,984.2
2024-04-18T00:41:58.310Z,984.2
2024-04-18T00:51:21.721Z,984.3
2024-04-18T01:01:59.484Z,984.2
2024-04-18T01:07:19.018Z,984.2
2024-04-18T01:17:57.777Z,984.2
2024-04-18T01:28:36.222Z,984.2
2024-04-18T01:33:54.936Z,984.3
2024-04-18T01:44:33.394Z,984.3
2024-04-18T01:49:53.417Z,984.4
2024-04-18T02:00:30.909Z,984.4
2024-04-18T02:05:51.332Z,984.4
2024-04-18T02:11:10.573Z,984.5
2024-04-18T02:16:29.839Z,984.5
2024-04-18T02:27:07.673Z,984.6
2024-04-18T02:37:47.555Z,984.6
2024-04-18T02:43:06.469Z,984.6
2024-04-18T02:53:44.819Z,984.5
2024-04-18T03:04:23.377Z,984.6
2024-04-18T03:09:41.490Z,984.5
2024-04-18T03:20:19.958Z,984.6
2024-04-18T03:25:39.591Z,984.6
2024-04-18T03:36:19.212Z,984.7
2024-04-18T03:41:37.679Z,984.7
2024-04-18T03:52:15.690Z,984.7
2024-04-18T04:02:54.652Z,984.8
2024-04-18T04:08:13.775Z,985
2024-04-18T04:18:52.902Z,985.1
2024-04-18T04:29:30.491Z,985.2
2024-04-18T04:34:49.530Z,985.3
2024-04-18T04:45:28.746Z,985.4
2024-04-18T04:50:48.234Z,985.5
2024-04-18T05:01:26.728Z,985.6
2024-04-18T05:17:24.208Z,985.7
2024-04-18T05:28:02.935Z,985.9
2024-04-18T05:33:23.202Z,985.9
2024-04-18T05:44:00.563Z,986.1
2024-04-18T05:49:19.700Z,986.2
2024-04-18T05:54:40.268Z,986.3
2024-04-18T05:59:58.109Z,986.3
2024-04-18T06:10:36.663Z,986.4
2024-04-18T06:15:57.011Z,986.6
2024-04-18T06:26:34.648Z,986.6
2024-04-18T06:42:32.604Z,986.9
2024-04-18T06:53:11.205Z,987
2024-04-18T06:58:30.838Z,987.1
2024-04-18T07:09:10.259Z,987.1
2024-04-18T07:14:28.651Z,987.1
2024-04-18T07:25:07.319Z,987.3
2024-04-18T07:35:54.383Z,987.3
2024-04-18T07:41:05.798Z,987.4
2024-04-18T07:51:45.017Z,987.5
2024-04-18T07:57:05.144Z,987.6
2024-04-18T08:18:21.334Z,987.8
2024-04-18T08:23:40.575Z,987.9
2024-04-18T08:34:19.685Z,988
2024-04-18T08:39:38.363Z,988
2024-04-18T08:50:17.311Z,988
2024-04-18T09:06:15.675Z,988
2024-04-18T09:16:54.614Z,988.1
2024-04-18T09:27:33.901Z,988.2
2024-04-18T09:32:53.694Z,988.3
2024-04-18T09:38:12.723Z,988.3
2024-04-18T09:43:31.238Z,988.4
2024-04-18T09:54:10.189Z,988.5
2024-04-18T09:59:30.073Z,988.5
2024-04-18T10:15:59.786Z,988.5
2024-04-18T10:31:58.721Z,988.5
2024-04-18T10:42:36.211Z,988.6
2024-04-18T10:47:55.218Z,988.7
2024-04-18T11:03:55.079Z,988.9
2024-04-18T11:14:34.057Z,989.1
2024-04-18T11:25:11.559Z,989.1
2024-04-18T11:30:31.132Z,989.2
2024-04-18T11:41:09.574Z,989
2024-04-18T11:46:28.718Z,989
2024-04-18T11:57:06.769Z,989
2024-04-18T12:02:27.347Z,989.1
2024-04-18T12:07:44.965Z,989.2
2024-04-18T12:13:03.831Z,989.3
2024-04-18T12:23:42.392Z,989.3
2024-04-18T12:29:01.928Z,989.3
2024-04-18T12:39:40.444Z,989.2
2024-04-18T12:50:19.968Z,989.2
2024-04-18T12:55:38.934Z,989.1
2024-04-18T13:06:18.158Z,989.1
2024-04-18T13:11:36.518Z,989.1
2024-04-18T13:22:14.466Z,989
2024-04-18T13:27:34.404Z,989.1
2024-04-18T13:38:11.774Z,988.9
2024-04-18T13:48:50.633Z,989
2024-04-18T13:54:08.997Z,988.9
2024-04-18T14:04:48.282Z,989
2024-04-18T14:10:07.533Z,989
2024-04-18T14:20:46.497Z,989.1
2024-04-18T14:31:25.987Z,989
2024-04-18T14:36:43.817Z,989
2024-04-18T14:47:22.639Z,989.2
2024-04-18T14:52:41.387Z,989.4
2024-04-18T15:03:19.781Z,989.8
2024-04-18T15:08:39.582Z,989.9
2024-04-18T15:19:16.730Z,990
2024-04-18T15:29:55.542Z,989.9
2024-04-18T15:35:15.185Z,989.8
2024-04-18T15:45:54.149Z,989.6
2024-04-18T15:51:13.602Z,989.7
2024-04-18T16:12:30.379Z,989.7
2024-04-18T16:23:09.556Z,989.9
2024-04-18T16:28:28.555Z,989.9
2024-04-18T16:39:10.042Z,990
2024-04-18T16:44:26.806Z,990
2024-04-18T16:49:45.621Z,990
2024-04-18T16:55:05.252Z,990
2024-04-18T17:05:43.999Z,989.9
2024-04-18T17:11:03.182Z,990
2024-04-18T17:21:41.840Z,990.1
2024-04-18T17:37:39.740Z,990.3
2024-04-18T17:48:17.740Z,990.3
2024-04-18T17:53:37.477Z,990.3
2024-04-18T18:04:15.516Z,990.3
2024-04-18T18:09:34.129Z,990.4
2024-04-18T18:20:13.098Z,990.5
2024-04-18T18:30:51.366Z,990.6
2024-04-18T18:36:19.148Z,990.7
2024-04-18T18:46:48.686Z,990.8
2024-04-18T18:52:07.962Z,990.9
2024-04-18T19:02:45.980Z,991.1
2024-04-18T19:08:05.323Z,991.2
2024-04-18T19:13:24.440Z,991.2
2024-04-18T19:18:43.461Z,991.3
2024-04-18T19:29:26.983Z,991.3
2024-04-18T19:34:40.371Z,991.3
2024-04-18T19:39:59.782Z,991.3
2024-04-18T19:45:18.913Z,991.3
2024-04-18T19:55:57.288Z,991.3
2024-04-18T20:01:16.964Z,991.3
2024-04-18T20:11:55.553Z,991.3
2024-04-18T20:17:15.247Z,991.4
2024-04-18T20:27:53.256Z,991.4
2024-04-18T20:43:50.966Z,991.3
2024-04-18T20:54:30.139Z,991.2
2024-04-18T20:59:48.873Z,991.3
2024-04-18T21:10:27.265Z,991.3
2024-04-18T21:26:25.083Z,991.3
2024-04-18T21:37:03.973Z,991.3
2024-04-18T21:42:23.347Z,991.2
2024-04-18T21:53:02.155Z,991.3
2024-04-18T21:58:21.273Z,991.3
2024-04-18T22:03:40.007Z,991.2
2024-04-18T22:08:59.324Z,991.3
2024-04-18T22:19:39.017Z,991.3
2024-04-18T22:24:58.065Z,991.4
2024-04-18T22:35:37.158Z,991.3
2024-04-18T22:40:56.536Z,991.3
2024-04-18T23:12:52.144Z,991.2
2024-04-18T23:18:11.504Z,991.2
2024-04-18T23:28:50.011Z,991.1
2024-04-18T23:34:08.541Z,991.1
2024-04-18T23:39:28.320Z,991.1
2024-04-18T23:44:47.649Z,991
2024-04-18T23:55:27.585Z,990.9
